createdAt,value
2018-12-04T00:00:48.888Z,7.20
2018-12-04T00:06:06.381Z,6.17
2018-12-04T00:11:23.884Z,7.50
2018-12-04T00:16:41.348Z,5.50
2018-12-04T00:21:58.968Z,4.40
2018-12-04T00:27:16.452Z,2.83
2018-12-04T00:32:33.943Z,2.60
2018-12-04T00:37:51.414Z,2.43
2018-12-04T00:43:08.870Z,2.43
2018-12-04T00:48:26.338Z,2.30
2018-12-04T00:53:44.101Z,2.13
2018-12-04T00:59:02.295Z,1.57
2018-12-04T01:04:19.772Z,1.50
2018-12-04T01:09:37.230Z,1.67
2018-12-04T01:14:54.854Z,1.47
2018-12-04T01:20:12.320Z,1.55
2018-12-04T01:25:29.787Z,1.70
2018-12-04T01:30:47.331Z,2.07
2018-12-04T01:36:04.887Z,2.33
2018-12-04T01:41:22.335Z,2.57
2018-12-04T01:46:39.852Z,3.63
2018-12-04T01:51:57.366Z,3.80
2018-12-04T01:57:15.209Z,3.92
2018-12-04T02:02:32.679Z,4.07
2018-12-04T02:07:50.157Z,4.10
2018-12-04T02:13:07.617Z,4.00
2018-12-04T02:18:25.095Z,3.13
2018-12-04T02:23:42.569Z,3.33
2018-12-04T02:29:00.065Z,3.00
2018-12-04T02:34:17.537Z,3.17
2018-12-04T02:39:35.028Z,2.80
2018-12-04T02:44:52.534Z,3.80
2018-12-04T02:50:10.002Z,2.90
2018-12-04T02:55:27.482Z,3.00
2018-12-04T03:00:44.954Z,3.43
2018-12-04T03:06:02.417Z,3.20
2018-12-04T03:11:19.943Z,2.90
2018-12-04T03:16:38.078Z,3.37
2018-12-04T03:21:55.542Z,3.57
2018-12-04T03:27:12.999Z,2.87
2018-12-04T03:32:30.485Z,3.40
2018-12-04T03:37:48.111Z,3.20
2018-12-04T03:43:05.611Z,3.23
2018-12-04T03:48:23.240Z,3.23
2018-12-04T03:53:40.704Z,3.07
2018-12-04T03:58:59.092Z,3.67
2018-12-04T04:04:16.570Z,3.40
2018-12-04T04:09:34.034Z,4.20
2018-12-04T04:14:51.531Z,3.90
2018-12-04T04:20:09.026Z,5.07
2018-12-04T04:25:26.497Z,4.77
2018-12-04T04:30:43.984Z,4.63
2018-12-04T04:36:01.457Z,5.07
2018-12-04T04:41:18.936Z,5.07
2018-12-04T04:46:36.415Z,5.90
2018-12-04T04:51:53.890Z,6.28
2018-12-04T04:57:11.366Z,5.73
2018-12-04T05:02:28.853Z,5.37
2018-12-04T05:07:46.467Z,5.70
2018-12-04T05:13:04.009Z,4.97
2018-12-04T05:18:21.507Z,4.63
2018-12-04T05:23:38.970Z,4.87
2018-12-04T05:28:56.455Z,4.80
2018-12-04T05:34:13.927Z,4.63
2018-12-04T05:39:31.557Z,4.27
2018-12-04T05:44:50.281Z,4.92
2018-12-04T05:50:08.015Z,5.70
2018-12-04T05:55:25.554Z,6.10
2018-12-04T06:00:43.027Z,4.33
2018-12-04T06:06:00.518Z,4.30
2018-12-04T06:11:17.986Z,3.83
2018-12-04T06:16:35.469Z,3.97
2018-12-04T06:21:52.945Z,3.73
2018-12-04T06:27:10.765Z,4.90
2018-12-04T06:32:28.270Z,4.83
2018-12-04T06:37:45.753Z,5.00
2018-12-04T06:43:04.808Z,4.50
2018-12-04T06:48:22.289Z,4.40
2018-12-04T06:53:40.583Z,5.23
2018-12-04T06:58:58.072Z,4.37
2018-12-04T07:04:15.664Z,4.37
2018-12-04T07:09:33.172Z,3.87
2018-12-04T07:14:50.670Z,4.50
2018-12-04T07:20:08.321Z,4.57
2018-12-04T07:25:25.884Z,4.50
2018-12-04T07:30:43.359Z,4.07
2018-12-04T07:36:00.850Z,4.80
2018-12-04T07:41:18.362Z,3.60
2018-12-04T07:46:35.846Z,3.30
2018-12-04T07:51:53.330Z,3.53
2018-12-04T07:57:10.810Z,3.13
2018-12-04T08:02:28.290Z,3.17
2018-12-04T08:07:45.765Z,2.93
2018-12-04T08:13:03.269Z,2.50
2018-12-04T08:18:20.737Z,2.83
2018-12-04T08:23:38.243Z,2.77
2018-12-04T08:28:55.769Z,3.10
2018-12-04T08:34:13.232Z,3.47
2018-12-04T08:39:30.727Z,2.93
2018-12-04T08:44:48.219Z,3.33
2018-12-04T08:50:06.173Z,3.10
2018-12-04T08:55:23.705Z,3.80
2018-12-04T09:00:41.165Z,3.47
2018-12-04T09:05:58.652Z,3.70
2018-12-04T09:11:16.128Z,3.23
2018-12-04T09:16:33.616Z,3.67
2018-12-04T09:21:51.155Z,3.70
2018-12-04T09:27:08.753Z,3.60
2018-12-04T09:32:26.394Z,3.50
2018-12-04T09:37:43.881Z,2.90
2018-12-04T09:43:04.178Z,3.17
2018-12-04T09:48:20.881Z,3.40
2018-12-04T09:53:38.875Z,3.50
2018-12-04T09:58:56.366Z,3.27
2018-12-04T10:04:13.836Z,3.70
2018-12-04T10:09:31.309Z,3.20
2018-12-04T10:14:49.112Z,3.27
2018-12-04T10:20:08.924Z,4.17
2018-12-04T10:25:26.401Z,3.23
2018-12-04T10:30:45.870Z,3.70
2018-12-04T10:36:03.481Z,3.33
2018-12-04T10:41:20.976Z,3.12
2018-12-04T10:46:38.470Z,3.80
2018-12-04T10:51:55.964Z,3.02
2018-12-04T10:57:13.436Z,3.33
2018-12-04T11:02:32.894Z,2.90
2018-12-04T11:07:50.408Z,3.23
2018-12-04T11:13:07.898Z,2.67
2018-12-04T11:18:25.375Z,2.97
2018-12-04T11:23:42.931Z,2.53
2018-12-04T11:29:00.411Z,2.47
2018-12-04T11:34:18.006Z,3.17
2018-12-04T11:39:35.497Z,2.30
2018-12-04T11:44:52.975Z,1.70
2018-12-04T11:50:10.558Z,1.95
2018-12-04T11:55:28.023Z,1.90
2018-12-04T12:00:45.602Z,1.83
2018-12-04T12:06:03.169Z,1.90
2018-12-04T12:11:20.633Z,2.20
2018-12-04T12:16:38.110Z,1.93
2018-12-04T12:21:55.590Z,2.40
2018-12-04T12:27:13.060Z,2.57
2018-12-04T12:32:30.534Z,2.23
2018-12-04T12:37:48.014Z,2.67
2018-12-04T12:43:05.495Z,2.03
2018-12-04T12:48:22.964Z,2.40
2018-12-04T12:53:40.473Z,2.40
2018-12-04T12:58:57.953Z,2.42
2018-12-04T13:04:15.424Z,2.10
2018-12-04T13:09:32.902Z,1.90
2018-12-04T13:14:50.397Z,2.37
2018-12-04T13:20:08.067Z,1.80
2018-12-04T13:25:25.551Z,2.43
2018-12-04T13:30:43.174Z,3.00
2018-12-04T13:36:00.676Z,2.37
2018-12-04T13:41:18.151Z,2.10
2018-12-04T13:46:35.627Z,2.13
2018-12-04T13:51:53.115Z,2.58
2018-12-04T13:57:10.613Z,2.33
2018-12-04T14:02:28.083Z,2.15
2018-12-04T14:07:46.006Z,1.97
2018-12-04T14:13:04.048Z,2.50
2018-12-04T14:18:21.891Z,2.23
2018-12-04T14:23:39.516Z,2.20
2018-12-04T14:28:57.066Z,2.47
2018-12-04T14:34:14.569Z,2.70
2018-12-04T14:39:32.425Z,2.50
2018-12-04T14:44:49.915Z,2.80
2018-12-04T14:50:08.373Z,3.23
2018-12-04T14:55:26.026Z,2.70
2018-12-04T15:00:43.591Z,3.20
2018-12-04T15:06:01.071Z,2.60
2018-12-04T15:11:18.529Z,3.73
2018-12-04T15:16:36.106Z,7.03
2018-12-04T15:21:54.554Z,5.00
2018-12-04T15:27:12.149Z,4.20
2018-12-04T15:32:29.882Z,4.83
2018-12-04T15:37:47.386Z,3.23
2018-12-04T15:43:05.686Z,3.43
2018-12-04T15:48:23.244Z,3.50
2018-12-04T15:53:40.916Z,3.13
2018-12-04T15:58:59.418Z,3.40
2018-12-04T16:04:16.957Z,3.77
2018-12-04T16:09:35.201Z,3.73
2018-12-04T16:14:52.751Z,3.43
2018-12-04T16:20:10.212Z,3.92
2018-12-04T16:25:27.687Z,3.73
2018-12-04T16:30:45.238Z,3.97
2018-12-04T16:36:03.729Z,4.15
2018-12-04T16:41:21.238Z,3.57
2018-12-04T16:46:38.760Z,3.77
2018-12-04T16:51:56.370Z,3.37
2018-12-04T16:57:13.933Z,4.70
2018-12-04T17:02:31.420Z,3.63
2018-12-04T17:07:48.897Z,3.50
2018-12-04T17:13:06.374Z,3.07
2018-12-04T17:18:23.894Z,3.77
2018-12-04T17:23:41.352Z,8.37
2018-12-04T17:28:58.827Z,7.20
2018-12-04T17:34:16.362Z,4.27
2018-12-04T17:39:33.905Z,4.07
2018-12-04T17:44:51.406Z,4.00
2018-12-04T17:50:08.969Z,4.13
2018-12-04T17:55:26.453Z,4.37
2018-12-04T18:00:43.931Z,4.13
2018-12-04T18:06:01.436Z,4.40
2018-12-04T18:11:18.915Z,3.97
2018-12-04T18:22:01.429Z,4.40
2018-12-04T18:27:18.902Z,4.53
2018-12-04T18:32:36.391Z,4.43
2018-12-04T18:37:53.870Z,4.05
2018-12-04T18:43:11.433Z,4.90
2018-12-04T18:48:28.985Z,4.80
2018-12-04T18:53:46.479Z,4.23
2018-12-04T18:59:03.954Z,4.63
2018-12-04T19:04:21.433Z,4.70
2018-12-04T19:09:39.007Z,4.10
2018-12-04T19:14:56.493Z,5.27
2018-12-04T19:20:14.081Z,4.57
2018-12-04T19:25:31.605Z,4.60
2018-12-04T19:30:49.093Z,5.03
2018-12-04T19:36:06.592Z,4.67
2018-12-04T19:41:24.121Z,4.87
2018-12-04T19:46:41.666Z,5.37
2018-12-04T19:51:59.207Z,5.50
2018-12-04T19:57:16.726Z,5.67
2018-12-04T20:02:34.290Z,5.80
2018-12-04T20:07:51.829Z,4.87
2018-12-04T20:13:09.306Z,5.03
2018-12-04T20:18:26.799Z,5.40
2018-12-04T20:23:44.359Z,5.00
2018-12-04T20:29:01.941Z,5.97
2018-12-04T20:34:19.449Z,6.43
2018-12-04T20:39:36.955Z,5.17
2018-12-04T20:44:54.432Z,5.50
2018-12-04T20:50:11.991Z,5.67
2018-12-04T20:55:29.471Z,10.63
2018-12-04T21:00:47.318Z,8.40
2018-12-04T21:06:05.661Z,6.75
2018-12-04T21:11:23.145Z,5.63
2018-12-04T21:16:40.637Z,5.33
2018-12-04T21:21:58.181Z,6.23
2018-12-04T21:27:21.220Z,5.33
2018-12-04T21:32:44.558Z,6.27
2018-12-04T21:38:07.622Z,9.20
2018-12-04T21:43:30.786Z,14.87
2018-12-04T21:48:48.277Z,10.07
2018-12-04T21:54:05.779Z,8.07
2018-12-04T21:59:23.290Z,7.77
2018-12-04T22:04:40.802Z,5.97
2018-12-04T22:09:58.262Z,6.67
2018-12-04T22:15:15.861Z,7.85
2018-12-04T22:20:33.776Z,6.27
2018-12-04T22:25:51.281Z,6.40
2018-12-04T22:31:08.774Z,7.13
2018-12-04T22:36:26.729Z,7.47
2018-12-04T22:41:44.203Z,9.00
2018-12-04T22:47:01.753Z,11.30
2018-12-04T22:52:19.248Z,9.70
2018-12-04T22:57:36.730Z,7.50
2018-12-04T23:02:54.213Z,8.23
2018-12-04T23:08:11.698Z,8.93
2018-12-04T23:13:29.189Z,11.23
2018-12-04T23:18:46.663Z,10.43
2018-12-04T23:24:04.223Z,8.93
2018-12-04T23:29:21.686Z,8.60
2018-12-04T23:34:39.156Z,7.90
2018-12-04T23:39:56.907Z,8.83
2018-12-04T23:45:14.386Z,8.70
2018-12-04T23:50:31.865Z,7.83
2018-12-04T23:55:49.337Z,7.13
